sensor_id;sensor_type;location;lat;lon;timestamp;pressure;altitude;pressure_sealevel;temperature;humidity
5284;BME280;15377;48.540;9.268;2023-06-10T00:01:45;97080.28;;;15.85;100.00
5284;BME280;15377;48.540;9.268;2023-06-10T00:04:13;97086.91;;;15.71;100.00
5284;BME280;15377;48.540;9.268;2023-06-10T00:06:39;97069.22;;;15.74;100.00
5284;BME280;15377;48.540;9.268;2023-06-10T00:09:05;97084.00;;;15.93;100.00
5284;BME280;15377;48.540;9.268;2023-06-10T00:11:32;97080.94;;;15.97;100.00
5284;BME280;15377;48.540;9.268;2023-06-10T00:13:57;97069.41;;;15.87;100.00
5284;BME280;15377;48.540;9.268;2023-06-10T00:16:23;97091.75;;;16.00;100.00
5284;BME280;15377;48.540;9.268;2023-06-10T00:18:49;97080.56;;;15.82;100.00
5284;BME280;15377;48.540;9.268;2023-06-10T00:21:16;97074.31;;;15.70;100.00
5284;BME280;15377;48.540;9.268;2023-06-10T00:23:42;97073.41;;;15.51;100.00
5284;BME280;15377;48.540;9.268;2023-06-10T00:26:07;97081.72;;;15.51;100.00
5284;BME280;15377;48.540;9.268;2023-06-10T00:28:33;97085.09;;;15.33;100.00
5284;BME280;15377;48.540;9.268;2023-06-10T00:30:59;97082.31;;;15.28;100.00
5284;BME280;15377;48.540;9.268;2023-06-10T00:33:24;97058.97;;;15.01;100.00
5284;BME280;15377;48.540;9.268;2023-06-10T00:35:51;97076.06;;;15.16;100.00
5284;BME280;15377;48.540;9.268;2023-06-10T00:38:16;97085.13;;;15.11;100.00
5284;BME280;15377;48.540;9.268;2023-06-10T00:40:42;97076.09;;;15.05;100.00
5284;BME280;15377;48.540;9.268;2023-06-10T00:43:07;97061.50;;;14.99;100.00
5284;BME280;15377;48.540;9.268;2023-06-10T00:45:35;97065.97;;;15.13;100.00
5284;BME280;15377;48.540;9.268;2023-06-10T00:48:01;97064.75;;;15.03;100.00
5284;BME280;15377;48.540;9.268;2023-06-10T00:50:27;97083.06;;;15.28;100.00
5284;BME280;15377;48.540;9.268;2023-06-10T00:52:53;97092.94;;;15.13;100.00
5284;BME280;15377;48.540;9.268;2023-06-10T00:55:20;97089.47;;;14.96;100.00
5284;BME280;15377;48.540;9.268;2023-06-10T00:57:46;97064.34;;;14.77;100.00
5284;BME280;15377;48.540;9.268;2023-06-10T01:00:14;97073.88;;;14.87;100.00
5284;BME280;15377;48.540;9.268;2023-06-10T01:02:40;97073.13;;;14.92;100.00
5284;BME280;15377;48.540;9.268;2023-06-10T01:05:06;97083.44;;;14.92;100.00
5284;BME280;15377;48.540;9.268;2023-06-10T01:10:38;97078.41;;;14.90;100.00
5284;BME280;15377;48.540;9.268;2023-06-10T01:13:09;97064.31;;;14.83;100.00
5284;BME280;15377;48.540;9.268;2023-06-10T01:15:38;97080.66;;;14.97;100.00
5284;BME280;15377;48.540;9.268;2023-06-10T01:18:05;97073.84;;;14.93;100.00
5284;BME280;15377;48.540;9.268;2023-06-10T01:20:34;97077.47;;;14.66;100.00
5284;BME280;15377;48.540;9.268;2023-06-10T01:23:02;97073.19;;;14.49;100.00
5284;BME280;15377;48.540;9.268;2023-06-10T01:25:28;97074.22;;;14.35;100.00
5284;BME280;15377;48.540;9.268;2023-06-10T01:28:02;97065.44;;;14.25;100.00
5284;BME280;15377;48.540;9.268;2023-06-10T01:30:35;97080.75;;;14.43;100.00
5284;BME280;15377;48.540;9.268;2023-06-10T01:33:03;97069.94;;;14.50;100.00
5284;BME280;15377;48.540;9.268;2023-06-10T01:35:33;97075.69;;;14.69;100.00
5284;BME280;15377;48.540;9.268;2023-06-10T01:37:59;97077.75;;;14.52;100.00
5284;BME280;15377;48.540;9.268;2023-06-10T01:40:26;97078.50;;;14.41;100.00
5284;BME280;15377;48.540;9.268;2023-06-10T01:42:53;97082.53;;;14.18;100.00
5284;BME280;15377;48.540;9.268;2023-06-10T01:45:18;97085.28;;;14.13;100.00
5284;BME280;15377;48.540;9.268;2023-06-10T01:47:44;97075.44;;;14.01;100.00
5284;BME280;15377;48.540;9.268;2023-06-10T01:50:09;97070.66;;;13.74;100.00
5284;BME280;15377;48.540;9.268;2023-06-10T01:52:34;97076.66;;;13.67;100.00
5284;BME280;15377;48.540;9.268;2023-06-10T01:55:00;97088.44;;;13.56;100.00
5284;BME280;15377;48.540;9.268;2023-06-10T01:57:25;97088.16;;;13.49;100.00
5284;BME280;15377;48.540;9.268;2023-06-10T01:59:50;97081.59;;;13.41;100.00
5284;BME280;15377;48.540;9.268;2023-06-10T02:02:16;97076.06;;;13.35;100.00
5284;BME280;15377;48.540;9.268;2023-06-10T02:04:41;97082.34;;;13.30;100.00
5284;BME280;15377;48.540;9.268;2023-06-10T02:07:06;97092.66;;;13.41;100.00
5284;BME280;15377;48.540;9.268;2023-06-10T02:09:32;97084.59;;;13.32;100.00
5284;BME280;15377;48.540;9.268;2023-06-10T02:12:00;97075.78;;;13.22;100.00
5284;BME280;15377;48.540;9.268;2023-06-10T02:14:25;97088.91;;;13.38;100.00
5284;BME280;15377;48.540;9.268;2023-06-10T02:16:51;97102.97;;;13.40;100.00
5284;BME280;15377;48.540;9.268;2023-06-10T02:19:16;97099.72;;;13.42;100.00
5284;BME280;15377;48.540;9.268;2023-06-10T02:21:42;97092.66;;;13.41;100.00
5284;BME280;15377;48.540;9.268;2023-06-10T02:24:07;97092.13;;;13.26;100.00
5284;BME280;15377;48.540;9.268;2023-06-10T02:26:33;97084.88;;;13.39;100.00
5284;BME280;15377;48.540;9.268;2023-06-10T02:28:58;97092.72;;;13.63;100.00
5284;BME280;15377;48.540;9.268;2023-06-10T02:31:23;97094.47;;;13.60;100.00
5284;BME280;15377;48.540;9.268;2023-06-10T02:33:50;97105.09;;;13.78;100.00
5284;BME280;15377;48.540;9.268;2023-06-10T02:36:15;97099.06;;;13.80;100.00
5284;BME280;15377;48.540;9.268;2023-06-10T02:38:42;97101.81;;;13.80;100.00
5284;BME280;15377;48.540;9.268;2023-06-10T02:41:07;97103.31;;;13.64;100.00
5284;BME280;15377;48.540;9.268;2023-06-10T02:43:32;97110.34;;;13.60;100.00
5284;BME280;15377;48.540;9.268;2023-06-10T02:45:58;97119.41;;;13.66;100.00
5284;BME280;15377;48.540;9.268;2023-06-10T02:48:24;97107.31;;;13.58;100.00
5284;BME280;15377;48.540;9.268;2023-06-10T02:50:49;97096.91;;;13.36;100.00
5284;BME280;15377;48.540;9.268;2023-06-10T02:53:14;97106.47;;;13.35;100.00
5284;BME280;15377;48.540;9.268;2023-06-10T02:55:40;97105.97;;;13.31;100.00
5284;BME280;15377;48.540;9.268;2023-06-10T02:58:06;97112.75;;;13.36;100.00
5284;BME280;15377;48.540;9.268;2023-06-10T03:00:32;97114.97;;;13.26;100.00
5284;BME280;15377;48.540;9.268;2023-06-10T03:02:58;97115.28;;;13.39;100.00
5284;BME280;15377;48.540;9.268;2023-06-10T03:05:28;97110.72;;;13.25;100.00
5284;BME280;15377;48.540;9.268;2023-06-10T03:07:53;97111.38;;;13.09;100.00
5284;BME280;15377;48.540;9.268;2023-06-10T03:10:18;97130.41;;;12.96;100.00
5284;BME280;15377;48.540;9.268;2023-06-10T03:12:44;97125.03;;;12.82;100.00
5284;BME280;15377;48.540;9.268;2023-06-10T03:15:09;97124.13;;;12.59;100.00
5284;BME280;15377;48.540;9.268;2023-06-10T03:17:35;97127.84;;;12.56;100.00
5284;BME280;15377;48.540;9.268;2023-06-10T03:20:00;97137.16;;;12.59;100.00
5284;BME280;15377;48.540;9.268;2023-06-10T03:22:25;97130.06;;;12.47;100.00
5284;BME280;15377;48.540;9.268;2023-06-10T03:24:51;97142.31;;;12.46;100.00
5284;BME280;15377;48.540;9.268;2023-06-10T03:27:16;97142.75;;;12.39;100.00
5284;BME280;15377;48.540;9.268;2023-06-10T03:29:42;97121.06;;;12.21;100.00
5284;BME280;15377;48.540;9.268;2023-06-10T03:32:08;97142.63;;;12.22;100.00
5284;BME280;15377;48.540;9.268;2023-06-10T03:34:33;97146.22;;;12.28;100.00
5284;BME280;15377;48.540;9.268;2023-06-10T03:36:59;97144.00;;;12.38;100.00
5284;BME280;15377;48.540;9.268;2023-06-10T03:39:25;97142.19;;;12.29;100.00
5284;BME280;15377;48.540;9.268;2023-06-10T03:41:51;97139.88;;;12.22;100.00
5284;BME280;15377;48.540;9.268;2023-06-10T03:44:16;97151.00;;;12.33;100.00
5284;BME280;15377;48.540;9.268;2023-06-10T03:46:42;97134.16;;;12.26;100.00
5284;BME280;15377;48.540;9.268;2023-06-10T03:49:07;97151.50;;;12.32;100.00
5284;BME280;15377;48.540;9.268;2023-06-10T03:51:33;97147.75;;;12.35;100.00
5284;BME280;15377;48.540;9.268;2023-06-10T03:53:58;97151.56;;;12.37;100.00
5284;BME280;15377;48.540;9.268;2023-06-10T03:56:23;97156.84;;;12.41;100.00
5284;BME280;15377;48.540;9.268;2023-06-10T03:58:49;97147.31;;;12.42;100.00
5284;BME280;15377;48.540;9.268;2023-06-10T04:01:14;97156.25;;;12.62;100.00
5284;BME280;15377;48.540;9.268;2023-06-10T04:03:40;97153.91;;;12.86;100.00
5284;BME280;15377;48.540;9.268;2023-06-10T04:06:07;97165.03;;;12.97;100.00
5284;BME280;15377;48.540;9.268;2023-06-10T04:08:32;97162.56;;;12.99;100.00
5284;BME280;15377;48.540;9.268;2023-06-10T04:10:58;97165.09;;;13.03;100.00
5284;BME280;15377;48.540;9.268;2023-06-10T04:13:23;97158.09;;;13.07;100.00
5284;BME280;15377;48.540;9.268;2023-06-10T04:15:49;97168.19;;;13.21;100.00
5284;BME280;15377;48.540;9.268;2023-06-10T04:18:15;97171.97;;;13.24;100.00
5284;BME280;15377;48.540;9.268;2023-06-10T04:20:41;97164.94;;;13.23;100.00
5284;BME280;15377;48.540;9.268;2023-06-10T04:23:06;97171.59;;;13.42;100.00
5284;BME280;15377;48.540;9.268;2023-06-10T04:25:32;97168.81;;;13.42;100.00
5284;BME280;15377;48.540;9.268;2023-06-10T04:27:57;97169.59;;;13.48;100.00
5284;BME280;15377;48.540;9.268;2023-06-10T04:30:22;97164.81;;;13.48;100.00
5284;BME280;15377;48.540;9.268;2023-06-10T04:32:48;97175.19;;;13.59;100.00
5284;BME280;15377;48.540;9.268;2023-06-10T04:35:16;97174.44;;;13.64;100.00
5284;BME280;15377;48.540;9.268;2023-06-10T04:37:41;97164.16;;;13.70;100.00
5284;BME280;15377;48.540;9.268;2023-06-10T04:40:07;97151.56;;;13.69;100.00
5284;BME280;15377;48.540;9.268;2023-06-10T04:42:34;97158.38;;;13.79;100.00
5284;BME280;15377;48.540;9.268;2023-06-10T04:44:59;97171.25;;;13.93;100.00
5284;BME280;15377;48.540;9.268;2023-06-10T04:47:25;97164.22;;;14.03;100.00
5284;BME280;15377;48.540;9.268;2023-06-10T04:49:51;97182.38;;;14.15;100.00
5284;BME280;15377;48.540;9.268;2023-06-10T04:52:16;97183.94;;;14.38;100.00
5284;BME280;15377;48.540;9.268;2023-06-10T04:54:41;97183.44;;;14.56;100.00
5284;BME280;15377;48.540;9.268;2023-06-10T04:57:07;97179.94;;;14.61;100.00
5284;BME280;15377;48.540;9.268;2023-06-10T04:59:33;97170.38;;;14.62;100.00
5284;BME280;15377;48.540;9.268;2023-06-10T05:02:02;97171.63;;;14.72;100.00
5284;BME280;15377;48.540;9.268;2023-06-10T05:04:28;97177.41;;;14.84;100.00
5284;BME280;15377;48.540;9.268;2023-06-10T05:06:54;97180.91;;;15.01;100.00
5284;BME280;15377;48.540;9.268;2023-06-10T05:09:20;97185.16;;;15.13;100.00
5284;BME280;15377;48.540;9.268;2023-06-10T05:11:46;97181.13;;;15.25;100.00
5284;BME280;15377;48.540;9.268;2023-06-10T05:14:11;97196.19;;;15.52;100.00
5284;BME280;15377;48.540;9.268;2023-06-10T05:16:37;97196.38;;;15.70;100.00
5284;BME280;15377;48.540;9.268;2023-06-10T05:19:02;97199.88;;;15.82;100.00
5284;BME280;15377;48.540;9.268;2023-06-10T05:21:29;97198.25;;;15.97;100.00
5284;BME280;15377;48.540;9.268;2023-06-10T05:23:54;97185.13;;;16.03;100.00
5284;BME280;15377;48.540;9.268;2023-06-10T05:26:20;97199.16;;;16.16;100.00
5284;BME280;15377;48.540;9.268;2023-06-10T05:28:45;97190.06;;;16.21;100.00
5284;BME280;15377;48.540;9.268;2023-06-10T05:31:10;97193.56;;;16.27;100.00
5284;BME280;15377;48.540;9.268;2023-06-10T05:33:36;97195.53;;;16.38;100.00
5284;BME280;15377;48.540;9.268;2023-06-10T05:36:01;97199.28;;;16.46;100.00
5284;BME280;15377;48.540;9.268;2023-06-10T05:38:27;97199.69;;;16.55;100.00
5284;BME280;15377;48.540;9.268;2023-06-10T05:40:52;97199.41;;;16.64;100.00
5284;BME280;15377;48.540;9.268;2023-06-10T05:43:18;97214.47;;;16.74;100.00
5284;BME280;15377;48.540;9.268;2023-06-10T05:45:43;97205.25;;;16.90;100.00
5284;BME280;15377;48.540;9.268;2023-06-10T05:48:09;97203.34;;;17.04;100.00
5284;BME280;15377;48.540;9.268;2023-06-10T05:50:34;97192.88;;;17.15;100.00
5284;BME280;15377;48.540;9.268;2023-06-10T05:53:04;97191.03;;;17.23;100.00
5284;BME280;15377;48.540;9.268;2023-06-10T05:55:31;97208.78;;;17.44;100.00
5284;BME280;15377;48.540;9.268;2023-06-10T05:58:00;97202.28;;;17.60;100.00
5284;BME280;15377;48.540;9.268;2023-06-10T06:00:26;97208.00;;;17.68;100.00
5284;BME280;15377;48.540;9.268;2023-06-10T06:02:52;97199.25;;;17.82;100.00
5284;BME280;15377;48.540;9.268;2023-06-10T06:05:17;97207.09;;;18.02;100.00
5284;BME280;15377;48.540;9.268;2023-06-10T06:07:43;97193.63;;;18.06;100.00
5284;BME280;15377;48.540;9.268;2023-06-10T06:10:08;97192.09;;;18.24;100.00
5284;BME280;15377;48.540;9.268;2023-06-10T06:12:34;97193.88;;;18.45;100.00
5284;BME280;15377;48.540;9.268;2023-06-10T06:14:59;97185.63;;;18.53;100.00
5284;BME280;15377;48.540;9.268;2023-06-10T06:17:24;97199.22;;;18.75;100.00
5284;BME280;15377;48.540;9.268;2023-06-10T06:19:50;97203.22;;;18.79;100.00
5284;BME280;15377;48.540;9.268;2023-06-10T06:22:15;97192.72;;;18.85;100.00
5284;BME280;15377;48.540;9.268;2023-06-10T06:24:44;97211.53;;;18.97;100.00
5284;BME280;15377;48.540;9.268;2023-06-10T06:27:10;97194.34;;;18.93;100.00
5284;BME280;15377;48.540;9.268;2023-06-10T06:29:35;97200.94;;;19.09;100.00
5284;BME280;15377;48.540;9.268;2023-06-10T06:32:01;97206.34;;;19.20;100.00
5284;BME280;15377;48.540;9.268;2023-06-10T06:34:26;97212.78;;;19.28;100.00
5284;BME280;15377;48.540;9.268;2023-06-10T06:36:51;97194.97;;;19.31;100.00
5284;BME280;15377;48.540;9.268;2023-06-10T06:39:17;97214.09;;;19.40;100.00
5284;BME280;15377;48.540;9.268;2023-06-10T06:41:42;97210.88;;;19.49;100.00
5284;BME280;15377;48.540;9.268;2023-06-10T06:44:07;97212.81;;;19.54;100.00
5284;BME280;15377;48.540;9.268;2023-06-10T06:46:33;97206.59;;;19.61;100.00
5284;BME280;15377;48.540;9.268;2023-06-10T06:48:58;97202.09;;;19.71;100.00
5284;BME280;15377;48.540;9.268;2023-06-10T06:51:24;97215.72;;;19.74;100.00
5284;BME280;15377;48.540;9.268;2023-06-10T06:53:49;97219.91;;;19.81;100.00
5284;BME280;15377;48.540;9.268;2023-06-10T06:56:16;97211.94;;;19.85;100.00
5284;BME280;15377;48.540;9.268;2023-06-10T06:58:42;97210.84;;;20.01;100.00
5284;BME280;15377;48.540;9.268;2023-06-10T07:01:07;97212.81;;;20.06;100.00
5284;BME280;15377;48.540;9.268;2023-06-10T07:03:33;97209.69;;;20.22;100.00
5284;BME280;15377;48.540;9.268;2023-06-10T07:05:58;97214.38;;;20.40;100.00
5284;BME280;15377;48.540;9.268;2023-06-10T07:08:24;97211.88;;;20.50;100.00
5284;BME280;15377;48.540;9.268;2023-06-10T07:10:49;97216.31;;;20.66;100.00
5284;BME280;15377;48.540;9.268;2023-06-10T07:13:15;97212.63;;;20.71;100.00
5284;BME280;15377;48.540;9.268;2023-06-10T07:15:40;97191.03;;;20.71;100.00
5284;BME280;15377;48.540;9.268;2023-06-10T07:18:06;97200.56;;;20.76;100.00
5284;BME280;15377;48.540;9.268;2023-06-10T07:20:31;97216.38;;;20.86;100.00
5284;BME280;15377;48.540;9.268;2023-06-10T07:22:56;97204.19;;;20.84;100.00
5284;BME280;15377;48.540;9.268;2023-06-10T07:25:22;97210.78;;;20.86;100.00
5284;BME280;15377;48.540;9.268;2023-06-10T07:27:47;97204.56;;;21.01;100.00
5284;BME280;15377;48.540;9.268;2023-06-10T07:30:12;97206.72;;;21.15;100.00
5284;BME280;15377;48.540;9.268;2023-06-10T07:32:38;97209.00;;;21.17;100.00
5284;BME280;15377;48.540;9.268;2023-06-10T07:35:05;97204.00;;;21.23;100.00
5284;BME280;15377;48.540;9.268;2023-06-10T07:37:30;97210.13;;;21.42;100.00
5284;BME280;15377;48.540;9.268;2023-06-10T07:39:56;97199.84;;;21.37;100.00
5284;BME280;15377;48.540;9.268;2023-06-10T07:42:21;97215.22;;;21.51;100.00
5284;BME280;15377;48.540;9.268;2023-06-10T07:44:47;97200.50;;;21.58;100.00
5284;BME280;15377;48.540;9.268;2023-06-10T07:47:12;97201.75;;;21.70;100.00
5284;BME280;15377;48.540;9.268;2023-06-10T07:49:37;97178.47;;;21.54;100.00
5284;BME280;15377;48.540;9.268;2023-06-10T07:52:03;97202.56;;;21.78;100.00
5284;BME280;15377;48.540;9.268;2023-06-10T07:54:29;97195.66;;;21.86;100.00
5284;BME280;15377;48.540;9.268;2023-06-10T07:56:54;97191.59;;;21.87;100.00
5284;BME280;15377;48.540;9.268;2023-06-10T07:59:19;97196.34;;;22.07;100.00
5284;BME280;15377;48.540;9.268;2023-06-10T08:01:45;97199.03;;;22.20;100.00
5284;BME280;15377;48.540;9.268;2023-06-10T08:04:10;97195.66;;;22.22;100.00
5284;BME280;15377;48.540;9.268;2023-06-10T08:06:36;97194.19;;;22.28;100.00
5284;BME280;15377;48.540;9.268;2023-06-10T08:09:02;97193.44;;;22.28;100.00
5284;BME280;15377;48.540;9.268;2023-06-10T08:11:28;97182.63;;;22.32;100.00
5284;BME280;15377;48.540;9.268;2023-06-10T08:13:54;97195.59;;;22.50;100.00
5284;BME280;15377;48.540;9.268;2023-06-10T08:16:20;97194.09;;;22.49;100.00
5284;BME280;15377;48.540;9.268;2023-06-10T08:18:45;97187.59;;;22.61;100.00
5284;BME280;15377;48.540;9.268;2023-06-10T08:21:10;97191.94;;;22.70;100.00
5284;BME280;15377;48.540;9.268;2023-06-10T08:23:36;97182.00;;;22.76;100.00
5284;BME280;15377;48.540;9.268;2023-06-10T08:26:01;97182.75;;;22.77;100.00
5284;BME280;15377;48.540;9.268;2023-06-10T08:28:27;97192.13;;;22.87;100.00
5284;BME280;15377;48.540;9.268;2023-06-10T08:30:52;97173.59;;;22.84;100.00
5284;BME280;15377;48.540;9.268;2023-06-10T08:33:17;97166.69;;;22.92;100.00
5284;BME280;15377;48.540;9.268;2023-06-10T08:35:43;97181.84;;;22.97;100.00
5284;BME280;15377;48.540;9.268;2023-06-10T08:38:08;97183.94;;;23.18;100.00
5284;BME280;15377;48.540;9.268;2023-06-10T08:40:34;97177.22;;;23.29;100.00
5284;BME280;15377;48.540;9.268;2023-06-10T08:43:07;97185.63;;;23.29;100.00
5284;BME280;15377;48.540;9.268;2023-06-10T08:45:35;97182.06;;;23.43;100.00
5284;BME280;15377;48.540;9.268;2023-06-10T08:48:02;97182.03;;;23.51;100.00
5284;BME280;15377;48.540;9.268;2023-06-10T08:50:30;97168.56;;;23.49;100.00
5284;BME280;15377;48.540;9.268;2023-06-10T08:52:57;97173.59;;;23.58;100.00
5284;BME280;15377;48.540;9.268;2023-06-10T08:55:27;97184.81;;;23.66;100.00
5284;BME280;15377;48.540;9.268;2023-06-10T08:57:54;97181.47;;;23.52;100.00
5284;BME280;15377;48.540;9.268;2023-06-10T09:00:25;97171.56;;;23.51;100.00
5284;BME280;15377;48.540;9.268;2023-06-10T09:02:52;97181.28;;;23.65;100.00
5284;BME280;15377;48.540;9.268;2023-06-10T09:05:17;97166.66;;;23.74;100.00
5284;BME280;15377;48.540;9.268;2023-06-10T09:07:45;97152.00;;;23.83;100.00
5284;BME280;15377;48.540;9.268;2023-06-10T09:10:11;97158.75;;;23.80;100.00
5284;BME280;15377;48.540;9.268;2023-06-10T09:12:36;97176.28;;;24.11;100.00
5284;BME280;15377;48.540;9.268;2023-06-10T09:15:03;97159.69;;;24.37;100.00
5284;BME280;15377;48.540;9.268;2023-06-10T09:17:29;97162.16;;;24.65;100.00
5284;BME280;15377;48.540;9.268;2023-06-10T09:19:55;97174.22;;;24.90;100.00
5284;BME280;15377;48.540;9.268;2023-06-10T09:22:22;97172.72;;;25.14;100.00
5284;BME280;15377;48.540;9.268;2023-06-10T09:24:48;97167.22;;;25.23;98.50
5284;BME280;15377;48.540;9.268;2023-06-10T09:27:13;97159.63;;;25.33;98.36
5284;BME280;15377;48.540;9.268;2023-06-10T09:32:10;97166.03;;;25.85;94.08
5284;BME280;15377;48.540;9.268;2023-06-10T09:34:36;97177.34;;;26.19;90.59
5284;BME280;15377;48.540;9.268;2023-06-10T09:37:01;97172.75;;;26.23;89.09
5284;BME280;15377;48.540;9.268;2023-06-10T09:39:27;97163.22;;;26.36;84.87
5284;BME280;15377;48.540;9.268;2023-06-10T09:41:52;97168.88;;;26.36;85.26
5284;BME280;15377;48.540;9.268;2023-06-10T09:44:19;97166.31;;;26.13;83.06
5284;BME280;15377;48.540;9.268;2023-06-10T09:46:46;97175.13;;;26.17;82.69
5284;BME280;15377;48.540;9.268;2023-06-10T09:49:13;97173.69;;;26.26;80.84
5284;BME280;15377;48.540;9.268;2023-06-10T09:51:49;97171.84;;;26.38;82.90
5284;BME280;15377;48.540;9.268;2023-06-10T09:54:15;97158.84;;;26.25;80.44
5284;BME280;15377;48.540;9.268;2023-06-10T09:56:40;97166.97;;;26.04;77.93
5284;BME280;15377;48.540;9.268;2023-06-10T09:59:07;97164.31;;;26.06;81.46
5284;BME280;15377;48.540;9.268;2023-06-10T10:01:33;97172.41;;;26.36;82.56
5284;BME280;15377;48.540;9.268;2023-06-10T10:03:59;97172.75;;;26.57;78.56
5284;BME280;15377;48.540;9.268;2023-06-10T10:06:24;97168.25;;;26.81;80.56
5284;BME280;15377;48.540;9.268;2023-06-10T10:08:51;97168.53;;;27.11;77.75
5284;BME280;15377;48.540;9.268;2023-06-10T10:11:19;97173.69;;;27.32;76.86
5284;BME280;15377;48.540;9.268;2023-06-10T10:13:49;97174.50;;;27.60;78.37
5284;BME280;15377;48.540;9.268;2023-06-10T10:16:17;97149.38;;;27.74;75.90
5284;BME280;15377;48.540;9.268;2023-06-10T10:18:55;97163.00;;;27.49;74.78
5284;BME280;15377;48.540;9.268;2023-06-10T10:21:26;97161.47;;;28.22;74.15
5284;BME280;15377;48.540;9.268;2023-06-10T10:24:09;97160.50;;;28.67;71.43
5284;BME280;15377;48.540;9.268;2023-06-10T10:26:38;97148.81;;;29.01;68.77
5284;BME280;15377;48.540;9.268;2023-06-10T10:31:51;97159.75;;;29.98;64.85
5284;BME280;15377;48.540;9.268;2023-06-10T10:34:24;97156.59;;;30.36;61.23
5284;BME280;15377;48.540;9.268;2023-06-10T10:36:54;97154.44;;;30.90;58.94
5284;BME280;15377;48.540;9.268;2023-06-10T10:39:20;97161.13;;;31.63;55.50
5284;BME280;15377;48.540;9.268;2023-06-10T10:41:46;97143.69;;;31.57;53.84
5284;BME280;15377;48.540;9.268;2023-06-10T10:44:13;97146.53;;;32.16;53.03
5284;BME280;15377;48.540;9.268;2023-06-10T10:46:42;97159.44;;;32.92;48.97
5284;BME280;15377;48.540;9.268;2023-06-10T10:49:09;97168.03;;;32.56;47.03
5284;BME280;15377;48.540;9.268;2023-06-10T10:51:35;97146.78;;;31.04;48.39
5284;BME280;15377;48.540;9.268;2023-06-10T10:54:14;97145.72;;;30.32;51.70
5284;BME280;15377;48.540;9.268;2023-06-10T11:02:33;97147.06;;;29.78;56.57
5284;BME280;15377;48.540;9.268;2023-06-10T11:05:00;97149.81;;;30.29;54.83
5284;BME280;15377;48.540;9.268;2023-06-10T11:07:26;97144.22;;;29.57;56.21
5284;BME280;15377;48.540;9.268;2023-06-10T11:10:08;97145.97;;;29.01;59.42
5284;BME280;15377;48.540;9.268;2023-06-10T11:15:07;97145.63;;;29.88;57.21
5284;BME280;15377;48.540;9.268;2023-06-10T11:17:32;97135.81;;;30.22;54.47
5284;BME280;15377;48.540;9.268;2023-06-10T11:20:01;97132.41;;;29.60;55.24
5284;BME280;15377;48.540;9.268;2023-06-10T11:22:26;97130.16;;;28.98;58.49
5284;BME280;15377;48.540;9.268;2023-06-10T11:24:52;97135.75;;;29.17;58.53
5284;BME280;15377;48.540;9.268;2023-06-10T11:27:22;97136.78;;;29.52;56.90
5284;BME280;15377;48.540;9.268;2023-06-10T11:29:57;97144.81;;;28.85;60.22
5284;BME280;15377;48.540;9.268;2023-06-10T11:32:28;97133.09;;;29.40;58.39
5284;BME280;15377;48.540;9.268;2023-06-10T11:34:55;97132.25;;;30.21;54.95
5284;BME280;15377;48.540;9.268;2023-06-10T11:37:21;97125.25;;;29.59;55.05
5284;BME280;15377;48.540;9.268;2023-06-10T11:39:47;97126.06;;;30.25;56.29
5284;BME280;15377;48.540;9.268;2023-06-10T11:42:16;97127.13;;;31.42;52.69
5284;BME280;15377;48.540;9.268;2023-06-10T11:44:48;97125.78;;;32.03;50.58
5284;BME280;15377;48.540;9.268;2023-06-10T11:47:14;97124.34;;;32.15;50.93
5284;BME280;15377;48.540;9.268;2023-06-10T11:49:39;97117.50;;;31.36;51.14
5284;BME280;15377;48.540;9.268;2023-06-10T11:52:05;97121.34;;;31.29;51.98
5284;BME280;15377;48.540;9.268;2023-06-10T11:54:30;97115.84;;;30.87;49.69
5284;BME280;15377;48.540;9.268;2023-06-10T11:56:59;97118.69;;;31.56;48.40
5284;BME280;15377;48.540;9.268;2023-06-10T11:59:29;97117.25;;;32.52;46.82
5284;BME280;15377;48.540;9.268;2023-06-10T12:01:55;97115.22;;;33.45;45.84
5284;BME280;15377;48.540;9.268;2023-06-10T12:04:21;97117.81;;;32.87;44.54
5284;BME280;15377;48.540;9.268;2023-06-10T12:06:52;97108.81;;;32.79;44.17
5284;BME280;15377;48.540;9.268;2023-06-10T12:12:03;97113.22;;;33.88;40.09
5284;BME280;15377;48.540;9.268;2023-06-10T12:14:56;97112.25;;;34.55;38.23
5284;BME280;15377;48.540;9.268;2023-06-10T12:19:57;97089.16;;;34.80;38.75
5284;BME280;15377;48.540;9.268;2023-06-10T12:22:22;97102.72;;;34.95;38.34
5284;BME280;15377;48.540;9.268;2023-06-10T12:24:58;97107.63;;;34.19;38.48
5284;BME280;15377;48.540;9.268;2023-06-10T12:27:29;97109.47;;;32.91;41.33
5284;BME280;15377;48.540;9.268;2023-06-10T12:29:56;97106.50;;;31.19;43.03
5284;BME280;15377;48.540;9.268;2023-06-10T12:32:43;97107.59;;;30.35;44.17
5284;BME280;15377;48.540;9.268;2023-06-10T12:35:10;97105.13;;;29.46;47.25
5284;BME280;15377;48.540;9.268;2023-06-10T12:37:37;97095.66;;;29.11;49.15
5284;BME280;15377;48.540;9.268;2023-06-10T12:40:04;97092.88;;;29.53;50.22
5284;BME280;15377;48.540;9.268;2023-06-10T12:42:31;97095.13;;;31.19;47.42
5284;BME280;15377;48.540;9.268;2023-06-10T12:44:59;97104.91;;;32.48;44.76
5284;BME280;15377;48.540;9.268;2023-06-10T12:47:35;97093.44;;;33.11;44.23
5284;BME280;15377;48.540;9.268;2023-06-10T12:50:02;97099.78;;;33.77;39.53
5284;BME280;15377;48.540;9.268;2023-06-10T12:52:28;97098.59;;;33.96;39.99
5284;BME280;15377;48.540;9.268;2023-06-10T12:54:54;97100.91;;;34.57;39.37
5284;BME280;15377;48.540;9.268;2023-06-10T12:57:23;97086.81;;;35.54;36.78
5284;BME280;15377;48.540;9.268;2023-06-10T12:59:49;97091.78;;;36.37;35.33
5284;BME280;15377;48.540;9.268;2023-06-10T13:02:18;97087.78;;;35.28;35.95
5284;BME280;15377;48.540;9.268;2023-06-10T13:04:45;97085.00;;;34.83;36.39
5284;BME280;15377;48.540;9.268;2023-06-10T13:07:10;97091.47;;;34.99;36.79
5284;BME280;15377;48.540;9.268;2023-06-10T13:09:36;97076.97;;;35.26;36.26
5284;BME280;15377;48.540;9.268;2023-06-10T13:12:02;97084.09;;;34.94;35.71
5284;BME280;15377;48.540;9.268;2023-06-10T13:14:27;97084.44;;;35.33;34.21
5284;BME280;15377;48.540;9.268;2023-06-10T13:16:54;97079.91;;;35.28;35.49
5284;BME280;15377;48.540;9.268;2023-06-10T13:19:20;97081.97;;;35.26;34.47
5284;BME280;15377;48.540;9.268;2023-06-10T13:21:47;97073.06;;;35.35;34.36